Terminal Aerodrome Forecast
Issued by NWS

Home | Current Version | Previous Version | Text Only | Print | Product List | Glossary On
Versions: 1 2 3 4 5 6 7 8 9 10 11 12 13
951
FTUS44 KJAN 211744
TAFHKS
TAF
KHKS 211744Z 2118/2218 26005KT P6SM VCSH BKN009 OVC025
     FM212100 28003KT P6SM VCSH SCT015 OVC050
     FM220100 30004KT P6SM VCSH BKN025 BKN250
     FM220600 00000KT 4SM BR OVC010
     FM220900 00000KT 1SM BR OVC005=

USA.gov is the U.S. government's official web portal to all federal, state and local government web resources and services.